createdAt,value
2017-11-08T00:00:42.692Z,97.90
2017-11-08T00:03:11.239Z,97.90
2017-11-08T00:05:40.079Z,98.00
2017-11-08T00:08:09.711Z,98.00
2017-11-08T00:10:38.559Z,98.00
2017-11-08T00:13:07.413Z,97.90
2017-11-08T00:15:36.246Z,97.90
2017-11-08T00:18:05.091Z,97.90
2017-11-08T00:20:33.946Z,97.90
2017-11-08T00:23:03.553Z,98.00
2017-11-08T00:25:33.165Z,97.80
2017-11-08T00:28:02.777Z,98.00
2017-11-08T00:30:31.622Z,98.00
2017-11-08T00:33:00.302Z,98.10
2017-11-08T00:35:28.976Z,98.10
2017-11-08T00:37:58.593Z,98.20
2017-11-08T00:40:27.435Z,98.20
2017-11-08T00:42:57.039Z,98.60
2017-11-08T00:45:25.876Z,98.60
2017-11-08T00:47:54.722Z,98.40
2017-11-08T00:50:24.334Z,98.40
2017-11-08T00:52:53.952Z,98.80
2017-11-08T00:55:23.572Z,98.90
2017-11-08T00:57:53.342Z,98.90
2017-11-08T01:00:22.183Z,99.50
2017-11-08T01:02:51.022Z,99.50
2017-11-08T01:05:19.876Z,99.10
2017-11-08T01:07:48.722Z,98.70
2017-11-08T01:10:18.340Z,98.30
2017-11-08T01:12:48.072Z,98.40
2017-11-08T01:15:16.909Z,98.40
2017-11-08T01:17:45.748Z,98.50
2017-11-08T01:20:14.608Z,98.40
2017-11-08T01:22:43.708Z,98.30
2017-11-08T01:25:12.538Z,98.40
2017-11-08T01:27:41.382Z,98.20
2017-11-08T01:30:09.903Z,98.10
2017-11-08T01:32:38.780Z,98.60
2017-11-08T01:35:08.434Z,99.60
2017-11-08T01:37:40.189Z,99.60
2017-11-08T01:40:09.885Z,99.90
2017-11-08T01:42:38.962Z,99.60
2017-11-08T01:45:07.804Z,99.70
2017-11-08T01:47:36.702Z,99.60
2017-11-08T01:50:05.543Z,99.30
2017-11-08T01:52:34.381Z,98.90
2017-11-08T01:55:02.902Z,99.40
2017-11-08T01:57:31.098Z,99.60
2017-11-08T01:59:59.301Z,99.90
2017-11-08T02:02:28.244Z,99.80
2017-11-08T02:04:57.870Z,99.60
2017-11-08T02:07:26.720Z,99.60
2017-11-08T02:09:56.180Z,99.50
2017-11-08T02:12:25.150Z,99.50
2017-11-08T02:14:54.002Z,99.50
2017-11-08T02:17:22.851Z,99.60
2017-11-08T02:19:51.825Z,99.70
2017-11-08T02:22:21.464Z,99.90
2017-11-08T02:24:49.992Z,99.90
2017-11-08T02:27:18.879Z,99.90
2017-11-08T02:29:47.765Z,99.90
2017-11-08T02:32:17.146Z,99.90
2017-11-08T02:34:45.331Z,99.90
2017-11-08T02:37:14.188Z,99.90
2017-11-08T02:39:43.091Z,99.90
2017-11-08T02:42:11.956Z,99.90
2017-11-08T02:44:40.495Z,99.90
2017-11-08T02:47:09.355Z,99.90
2017-11-08T02:49:38.191Z,99.90
2017-11-08T02:52:07.815Z,99.90
2017-11-08T02:54:40.409Z,99.90
2017-11-08T02:57:09.270Z,99.90
2017-11-08T02:59:40.806Z,99.90
2017-11-08T03:02:12.206Z,99.90
2017-11-08T03:04:46.937Z,99.90
2017-11-08T03:07:15.801Z,99.90
2017-11-08T03:09:45.410Z,99.90
2017-11-08T03:12:15.103Z,99.90
2017-11-08T03:14:43.959Z,99.90
2017-11-08T03:17:12.814Z,99.90
2017-11-08T03:19:42.424Z,99.90
2017-11-08T03:22:11.268Z,99.90
2017-11-08T03:24:40.136Z,99.90
2017-11-08T03:27:08.979Z,99.90
2017-11-08T03:29:38.614Z,99.90
2017-11-08T03:32:07.467Z,99.90
2017-11-08T03:34:36.357Z,99.90
2017-11-08T03:37:04.533Z,99.90
2017-11-08T03:39:33.391Z,99.90
2017-11-08T03:42:02.239Z,99.90
2017-11-08T03:44:31.852Z,99.90
2017-11-08T03:47:00.706Z,99.90
2017-11-08T03:49:29.387Z,99.90
2017-11-08T03:51:59.179Z,99.90
2017-11-08T03:54:28.026Z,99.90
2017-11-08T03:56:57.651Z,99.90
2017-11-08T03:59:26.495Z,99.90
2017-11-08T04:01:55.349Z,99.90
2017-11-08T04:04:24.205Z,99.90
2017-11-08T04:06:53.837Z,99.90
2017-11-08T04:09:22.689Z,99.90
2017-11-08T04:11:51.529Z,99.90
2017-11-08T04:14:20.379Z,99.90
2017-11-08T04:16:51.026Z,99.90
2017-11-08T04:19:20.626Z,99.90
2017-11-08T04:21:50.264Z,99.90
2017-11-08T04:24:19.120Z,99.90
2017-11-08T04:26:48.748Z,99.90
2017-11-08T04:29:17.599Z,99.90
2017-11-08T04:31:46.615Z,99.90
2017-11-08T04:34:16.227Z,99.90
2017-11-08T04:36:45.835Z,99.90
2017-11-08T04:39:15.447Z,99.90
2017-11-08T04:41:45.071Z,99.90
2017-11-08T04:44:13.922Z,99.90
2017-11-08T04:46:42.473Z,99.90
2017-11-08T04:49:11.339Z,99.90
2017-11-08T04:51:40.179Z,99.90
2017-11-08T04:54:09.036Z,99.90
2017-11-08T04:56:37.894Z,99.90
2017-11-08T04:59:07.510Z,99.90
2017-11-08T05:01:37.118Z,99.90
2017-11-08T05:04:06.738Z,99.90
2017-11-08T05:06:35.612Z,99.90
2017-11-08T05:09:04.650Z,99.90
2017-11-08T05:11:33.496Z,99.90
2017-11-08T05:14:03.118Z,99.90
2017-11-08T05:16:31.959Z,99.90
2017-11-08T05:19:00.819Z,99.90
2017-11-08T05:21:29.666Z,99.90
2017-11-08T05:23:58.514Z,99.90
2017-11-08T05:26:27.368Z,99.90
2017-11-08T05:28:56.210Z,99.90
2017-11-08T05:31:25.672Z,99.90
2017-11-08T05:33:54.524Z,99.90
2017-11-08T05:36:23.380Z,99.90
2017-11-08T05:38:52.235Z,99.90
2017-11-08T05:41:21.089Z,99.90
2017-11-08T05:43:50.003Z,99.90
2017-11-08T05:46:19.299Z,99.90
2017-11-08T05:48:48.928Z,99.90
2017-11-08T05:51:17.443Z,99.90
2017-11-08T05:53:46.285Z,99.90
2017-11-08T05:56:15.903Z,99.90
2017-11-08T05:58:45.525Z,99.90
2017-11-08T06:01:14.384Z,99.90
2017-11-08T06:03:44.215Z,99.90
2017-11-08T06:06:13.827Z,99.90
2017-11-08T06:08:43.440Z,99.90
2017-11-08T06:11:13.064Z,99.90
2017-11-08T06:13:41.930Z,99.90
2017-11-08T06:16:11.535Z,99.90
2017-11-08T06:18:41.141Z,99.90
2017-11-08T06:21:10.002Z,99.90
2017-11-08T06:23:38.709Z,99.90
2017-11-08T06:26:07.378Z,99.90
2017-11-08T06:28:36.235Z,99.90
2017-11-08T06:31:05.877Z,99.90
2017-11-08T06:33:34.730Z,99.90
2017-11-08T06:36:04.527Z,99.90
2017-11-08T06:38:34.135Z,99.90
2017-11-08T06:41:03.754Z,99.90
2017-11-08T06:43:32.628Z,99.90
2017-11-08T06:46:02.259Z,99.90
2017-11-08T06:48:31.117Z,99.90
2017-11-08T06:51:00.740Z,99.90
2017-11-08T06:53:33.203Z,99.90
2017-11-08T06:56:08.773Z,99.90
2017-11-08T06:58:37.619Z,99.90
2017-11-08T07:01:06.876Z,99.90
2017-11-08T07:03:35.735Z,99.90
2017-11-08T07:06:04.686Z,99.90
2017-11-08T07:08:33.564Z,99.90
2017-11-08T07:11:02.436Z,99.90
2017-11-08T07:13:31.286Z,99.90
2017-11-08T07:16:00.130Z,99.90
2017-11-08T07:18:28.995Z,99.90
2017-11-08T07:20:59.520Z,99.90
2017-11-08T07:23:29.144Z,99.90
2017-11-08T07:25:58.013Z,99.90
2017-11-08T07:28:27.648Z,99.90
2017-11-08T07:30:56.503Z,99.90
2017-11-08T07:33:25.599Z,99.90
2017-11-08T07:35:54.446Z,99.90
2017-11-08T07:38:23.295Z,99.90
2017-11-08T07:40:52.894Z,99.90
2017-11-08T07:43:23.682Z,99.90
2017-11-08T07:45:52.919Z,99.90
2017-11-08T07:48:21.774Z,99.90
2017-11-08T07:50:51.225Z,99.90
2017-11-08T07:53:20.847Z,99.80
2017-11-08T07:55:56.020Z,99.50
2017-11-08T07:58:24.866Z,99.40
2017-11-08T08:00:54.885Z,98.60
2017-11-08T08:03:23.731Z,98.30
2017-11-08T08:05:52.893Z,98.20
2017-11-08T08:08:21.736Z,98.10
2017-11-08T08:10:50.587Z,98.30
2017-11-08T08:13:19.446Z,98.20
2017-11-08T08:15:49.067Z,98.40
2017-11-08T08:18:18.672Z,98.30
2017-11-08T08:20:48.278Z,98.00
2017-11-08T08:23:17.122Z,98.00
2017-11-08T08:25:47.799Z,98.10
2017-11-08T08:28:17.418Z,97.90
2017-11-08T08:30:47.018Z,97.80
2017-11-08T08:33:16.642Z,97.90
2017-11-08T08:35:45.488Z,97.80
2017-11-08T08:38:14.336Z,98.10
2017-11-08T08:40:43.171Z,97.90
2017-11-08T08:43:12.027Z,98.20
2017-11-08T08:45:40.901Z,98.20
2017-11-08T08:48:10.376Z,98.50
2017-11-08T08:50:40.013Z,98.80
2017-11-08T08:53:09.854Z,98.70
2017-11-08T08:55:38.933Z,98.70
2017-11-08T08:58:08.250Z,98.30
2017-11-08T09:00:37.106Z,98.00
2017-11-08T09:03:05.964Z,97.60
2017-11-08T09:05:35.268Z,97.40
2017-11-08T09:08:04.118Z,97.00
2017-11-08T09:10:38.017Z,96.90
2017-11-08T09:13:07.166Z,96.80
2017-11-08T09:15:35.851Z,96.80
2017-11-08T09:18:04.727Z,96.50
2017-11-08T09:20:34.165Z,96.30
2017-11-08T09:23:03.778Z,95.90
2017-11-08T09:25:33.400Z,95.70
2017-11-08T09:28:02.543Z,95.70
2017-11-08T09:30:31.255Z,95.50
2017-11-08T09:33:00.113Z,95.20
2017-11-08T09:35:30.205Z,94.90
2017-11-08T09:38:04.527Z,94.80
2017-11-08T09:40:43.835Z,94.60
2017-11-08T09:43:12.799Z,94.20
2017-11-08T09:45:41.689Z,93.80
2017-11-08T09:48:10.559Z,93.50
2017-11-08T09:50:39.409Z,93.30
2017-11-08T09:53:08.942Z,93.10
2017-11-08T09:55:37.882Z,93.10
2017-11-08T09:58:10.015Z,92.90
2017-11-08T10:00:41.068Z,92.80
2017-11-08T10:03:09.957Z,92.70
2017-11-08T10:05:38.812Z,92.50
2017-11-08T10:08:10.517Z,92.50
2017-11-08T10:10:39.376Z,92.40
2017-11-08T10:13:11.085Z,91.90
2017-11-08T10:15:40.328Z,91.90
2017-11-08T10:18:09.181Z,91.80
2017-11-08T10:20:38.205Z,91.80
2017-11-08T10:23:07.526Z,91.70
2017-11-08T10:25:36.358Z,90.90
2017-11-08T10:28:06.984Z,90.30
2017-11-08T10:30:36.342Z,90.20
2017-11-08T10:33:05.190Z,90.20
2017-11-08T10:35:34.855Z,90.00
2017-11-08T10:38:04.626Z,89.70
2017-11-08T10:40:33.468Z,89.10
2017-11-08T10:43:02.289Z,88.50
2017-11-08T10:45:35.980Z,88.20
2017-11-08T10:48:05.784Z,87.90
2017-11-08T10:50:35.400Z,87.90
2017-11-08T10:53:03.948Z,88.50
2017-11-08T10:55:32.790Z,87.90
2017-11-08T10:58:01.491Z,87.90
2017-11-08T11:00:35.192Z,87.40
2017-11-08T11:03:06.676Z,87.60
2017-11-08T11:05:34.887Z,87.40
2017-11-08T11:08:05.313Z,86.10
2017-11-08T11:10:34.934Z,86.10
2017-11-08T11:13:03.719Z,85.80
2017-11-08T11:15:32.700Z,84.80
2017-11-08T11:18:00.892Z,84.80
2017-11-08T11:20:30.575Z,84.20
2017-11-08T11:22:58.772Z,84.20
2017-11-08T11:25:28.013Z,83.60
2017-11-08T11:27:56.125Z,83.60
2017-11-08T11:30:27.372Z,82.60
2017-11-08T11:32:56.361Z,82.40
2017-11-08T11:35:25.821Z,82.20
2017-11-08T11:37:54.405Z,81.90
2017-11-08T11:40:23.280Z,81.90
2017-11-08T11:42:52.949Z,81.90
2017-11-08T11:45:21.515Z,81.90
2017-11-08T11:47:50.057Z,81.50
2017-11-08T11:50:19.994Z,81.00
2017-11-08T11:52:49.169Z,81.10
2017-11-08T11:55:18.016Z,81.30
2017-11-08T11:57:46.903Z,81.50
2017-11-08T12:00:15.145Z,81.90
2017-11-08T12:02:43.349Z,81.50
2017-11-08T12:05:11.588Z,81.80
2017-11-08T12:07:40.612Z,81.50
2017-11-08T12:10:09.942Z,81.50
2017-11-08T12:12:38.134Z,82.00
2017-11-08T12:15:06.338Z,82.10
2017-11-08T12:17:35.292Z,81.90
2017-11-08T12:20:03.502Z,81.80
2017-11-08T12:22:33.312Z,82.70
2017-11-08T12:25:02.666Z,82.20
2017-11-08T12:27:31.849Z,82.10
2017-11-08T12:30:00.283Z,82.20
2017-11-08T12:32:29.253Z,81.50
2017-11-08T12:34:59.364Z,81.50
2017-11-08T12:37:27.568Z,81.00
2017-11-08T12:39:56.780Z,81.20
2017-11-08T12:42:26.636Z,81.30
2017-11-08T12:44:57.571Z,81.60
2017-11-08T12:47:28.881Z,80.60
2017-11-08T12:49:58.549Z,80.80
2017-11-08T12:52:26.785Z,80.80
2017-11-08T12:54:56.116Z,81.10
2017-11-08T12:57:25.241Z,81.10
2017-11-08T12:59:53.480Z,81.20
2017-11-08T13:02:21.664Z,81.20
2017-11-08T13:04:49.859Z,81.50
2017-11-08T13:07:18.444Z,82.60
2017-11-08T13:09:47.010Z,84.10
2017-11-08T13:12:15.552Z,85.70
2017-11-08T13:14:43.744Z,86.90
2017-11-08T13:17:12.533Z,89.50
2017-11-08T13:19:42.016Z,90.20
2017-11-08T13:22:11.004Z,90.60
2017-11-08T13:24:39.900Z,90.40
2017-11-08T13:27:08.118Z,90.60
2017-11-08T13:29:36.655Z,91.20
2017-11-08T13:32:05.203Z,91.40
2017-11-08T13:34:33.412Z,91.30
2017-11-08T13:37:01.964Z,91.40
2017-11-08T13:39:30.847Z,91.50
2017-11-08T13:42:00.192Z,91.50
2017-11-08T13:44:28.738Z,91.50
2017-11-08T13:46:57.653Z,91.40
2017-11-08T13:49:26.729Z,91.50
2017-11-08T13:51:55.622Z,91.60
2017-11-08T13:54:25.519Z,91.60
2017-11-08T13:56:54.071Z,91.50
2017-11-08T13:59:24.143Z,91.60
2017-11-08T14:01:52.344Z,91.50
2017-11-08T14:04:20.541Z,91.30
2017-11-08T14:07:00.743Z,91.20
2017-11-08T14:09:30.395Z,91.00
2017-11-08T14:11:59.816Z,90.50
2017-11-08T14:14:29.305Z,90.30
2017-11-08T14:16:58.412Z,90.20
2017-11-08T14:19:27.391Z,90.10
2017-11-08T14:21:56.266Z,90.00
2017-11-08T14:24:25.128Z,89.80
2017-11-08T14:26:54.000Z,89.90
2017-11-08T14:29:23.633Z,89.90
2017-11-08T14:31:54.361Z,90.50
2017-11-08T14:34:23.224Z,90.60
2017-11-08T14:36:52.849Z,90.50
2017-11-08T14:39:22.485Z,90.60
2017-11-08T14:41:51.181Z,90.60
2017-11-08T14:44:20.045Z,90.90
2017-11-08T14:46:48.888Z,90.50
2017-11-08T14:49:17.807Z,90.60
2017-11-08T14:51:50.064Z,90.60
2017-11-08T14:54:18.942Z,90.60
2017-11-08T14:56:47.808Z,90.70
2017-11-08T14:59:17.556Z,90.60
2017-11-08T15:01:47.915Z,90.80
2017-11-08T15:04:16.799Z,90.70
2017-11-08T15:06:46.099Z,90.80
2017-11-08T15:09:16.843Z,91.10
2017-11-08T15:11:47.911Z,90.90
2017-11-08T15:14:26.685Z,91.20
2017-11-08T15:16:57.149Z,91.20
2017-11-08T15:19:29.496Z,91.40
2017-11-08T15:21:59.158Z,91.30
2017-11-08T15:24:28.067Z,91.30
2017-11-08T15:26:57.426Z,91.20
2017-11-08T15:29:26.282Z,91.20
2017-11-08T15:31:55.131Z,91.20
2017-11-08T15:34:26.608Z,91.50
2017-11-08T15:36:59.869Z,91.20
2017-11-08T15:39:28.777Z,91.20
2017-11-08T15:42:00.652Z,91.40
2017-11-08T15:44:29.582Z,91.50
2017-11-08T15:46:59.394Z,91.40
2017-11-08T15:49:29.050Z,91.40
2017-11-08T15:51:57.941Z,91.40
2017-11-08T15:54:27.152Z,91.50
2017-11-08T15:56:56.023Z,91.50
2017-11-08T15:59:25.330Z,91.70
2017-11-08T16:01:58.067Z,91.90
2017-11-08T16:04:27.855Z,92.00
2017-11-08T16:06:57.653Z,91.90
2017-11-08T16:09:27.926Z,91.90
2017-11-08T16:11:56.860Z,91.90
2017-11-08T16:14:26.467Z,91.90
2017-11-08T17:00:37.054Z,92.00
2017-11-08T17:03:05.744Z,91.30
2017-11-08T17:05:35.448Z,91.50
2017-11-08T17:08:04.307Z,91.90
2017-11-08T17:10:33.163Z,92.10
2017-11-08T17:13:02.799Z,92.20
2017-11-08T17:15:33.435Z,92.40
2017-11-08T17:18:03.292Z,92.40
2017-11-08T17:20:32.143Z,92.60
2017-11-08T17:23:01.016Z,92.60
2017-11-08T17:25:30.641Z,92.60
2017-11-08T17:27:59.493Z,92.60
2017-11-08T17:30:28.882Z,92.50
2017-11-08T17:32:57.767Z,92.50
2017-11-08T17:35:26.627Z,92.60
2017-11-08T17:37:55.485Z,92.70
2017-11-08T17:40:25.114Z,92.70
2017-11-08T17:42:53.984Z,92.70
2017-11-08T17:45:23.722Z,92.80
2017-11-08T17:47:52.597Z,92.80
2017-11-08T17:50:22.285Z,92.60
2017-11-08T17:52:51.149Z,92.60
2017-11-08T17:55:20.018Z,92.70
2017-11-08T17:57:48.875Z,92.80
2017-11-08T18:00:18.548Z,92.70
2017-11-08T18:02:47.423Z,92.70
2017-11-08T18:05:16.274Z,98.00
2017-11-08T18:07:45.143Z,99.40
2017-11-08T18:10:15.707Z,92.90
2017-11-08T18:12:44.573Z,92.90
2017-11-08T18:15:14.212Z,91.40
2017-11-08T18:17:43.942Z,89.20
2017-11-08T18:20:12.816Z,89.30
2017-11-08T18:22:42.470Z,90.40
2017-11-08T18:25:12.113Z,91.90
2017-11-08T18:27:41.728Z,92.80
2017-11-08T18:30:10.622Z,92.70
2017-11-08T18:32:39.489Z,93.10
2017-11-08T18:35:09.130Z,93.30
2017-11-08T18:37:37.735Z,93.30
2017-11-08T18:40:06.595Z,93.80
2017-11-08T18:42:35.456Z,93.50
2017-11-08T18:45:04.015Z,93.50
2017-11-08T18:47:32.901Z,93.20
2017-11-08T18:50:01.775Z,93.30
2017-11-08T18:52:31.094Z,93.10
2017-11-08T18:55:00.704Z,92.90
2017-11-08T18:57:30.514Z,93.00
2017-11-08T18:59:59.372Z,93.20
2017-11-08T19:02:28.264Z,93.40
2017-11-08T19:04:56.819Z,93.40
2017-11-08T19:07:26.466Z,93.00
2017-11-08T19:09:55.364Z,93.00
2017-11-08T19:12:24.312Z,93.30
2017-11-08T19:14:53.941Z,93.30
2017-11-08T19:17:22.651Z,93.50
2017-11-08T19:19:52.618Z,93.30
2017-11-08T19:22:22.259Z,93.50
2017-11-08T19:24:51.126Z,93.20
2017-11-08T19:27:20.009Z,93.20
2017-11-08T19:29:48.698Z,93.30
2017-11-08T19:32:17.632Z,93.30
2017-11-08T19:34:46.502Z,93.40
2017-11-08T19:37:15.455Z,93.20
2017-11-08T19:39:44.331Z,93.10
2017-11-08T19:42:13.216Z,93.00
2017-11-08T19:44:42.071Z,93.10
2017-11-08T19:47:11.803Z,93.00
2017-11-08T19:49:40.653Z,93.00
2017-11-08T19:52:10.282Z,92.90
2017-11-08T19:54:39.913Z,92.80
2017-11-08T19:57:08.783Z,92.80
2017-11-08T19:59:38.449Z,93.00
2017-11-08T20:02:07.320Z,93.00
2017-11-08T20:04:36.194Z,92.90
2017-11-08T20:07:05.077Z,92.80
2017-11-08T20:09:33.964Z,92.80
2017-11-08T20:12:02.843Z,92.80
2017-11-08T20:14:32.518Z,93.00
2017-11-08T20:17:01.381Z,93.00
2017-11-08T20:19:30.248Z,93.00
2017-11-08T20:21:59.114Z,93.00
2017-11-08T20:24:27.983Z,93.00
2017-11-08T20:26:57.035Z,93.10
2017-11-08T20:29:25.905Z,93.00
2017-11-08T20:31:55.712Z,92.90
2017-11-08T20:34:25.365Z,93.00
2017-11-08T20:36:54.236Z,92.90
2017-11-08T20:39:23.667Z,92.90
2017-11-08T20:41:52.552Z,93.30
2017-11-08T20:44:21.883Z,92.90
2017-11-08T20:46:50.752Z,92.90
2017-11-08T20:49:19.723Z,93.10
2017-11-08T20:51:49.564Z,93.20
2017-11-08T20:54:18.458Z,93.50
2017-11-08T20:56:47.332Z,93.20
2017-11-08T20:59:16.188Z,93.10
2017-11-08T21:01:45.840Z,93.10
2017-11-08T21:04:14.719Z,93.10
2017-11-08T21:06:43.568Z,93.10
2017-11-08T21:09:13.213Z,93.10
2017-11-08T21:11:42.125Z,93.00
2017-11-08T21:14:11.446Z,93.00
2017-11-08T21:16:40.326Z,93.00
2017-11-08T21:19:10.041Z,93.20
2017-11-08T21:21:38.933Z,93.40
2017-11-08T21:24:07.825Z,93.50
2017-11-08T21:26:36.715Z,93.50
2017-11-08T21:29:05.608Z,93.50
2017-11-08T21:31:34.422Z,93.50
2017-11-08T21:34:03.276Z,93.70
2017-11-08T21:36:33.509Z,93.60
2017-11-08T21:39:02.372Z,93.70
2017-11-08T21:41:31.242Z,93.70
2017-11-08T21:44:00.872Z,93.60
2017-11-08T21:46:29.761Z,93.60
2017-11-08T21:48:58.636Z,93.50
2017-11-08T21:51:27.495Z,93.50
2017-11-08T21:53:56.348Z,93.60
2017-11-08T21:56:25.214Z,93.50
2017-11-08T21:58:54.071Z,93.70
2017-11-08T22:01:22.919Z,93.60
2017-11-08T22:03:51.775Z,93.70
2017-11-08T22:06:20.640Z,93.80
2017-11-08T22:08:49.497Z,93.80
2017-11-08T22:11:18.355Z,93.90
2017-11-08T22:13:47.220Z,94.00
2017-11-08T22:16:16.858Z,94.10
2017-11-08T22:18:46.527Z,93.90
2017-11-08T22:21:15.431Z,93.90
2017-11-08T22:23:45.777Z,94.00
2017-11-08T22:26:16.544Z,94.00
2017-11-08T22:28:45.444Z,94.00
2017-11-08T22:31:14.323Z,93.90
2017-11-08T22:33:43.222Z,94.00
2017-11-08T22:36:12.192Z,94.10
2017-11-08T22:38:43.697Z,93.90
2017-11-08T22:41:13.153Z,93.90
2017-11-08T22:43:42.028Z,93.90
2017-11-08T22:46:11.657Z,94.00
2017-11-08T22:48:40.508Z,94.00
2017-11-08T22:51:09.364Z,94.00
2017-11-08T22:53:38.233Z,94.00
2017-11-08T22:56:07.087Z,94.20
2017-11-08T22:58:35.933Z,94.20
2017-11-08T23:01:04.460Z,94.30
2017-11-08T23:03:33.313Z,94.30
2017-11-08T23:06:02.168Z,94.30
2017-11-08T23:08:31.784Z,94.20
2017-11-08T23:11:00.642Z,94.20
2017-11-08T23:13:29.517Z,94.20
2017-11-08T23:16:01.116Z,94.30
2017-11-08T23:18:29.967Z,94.40
2017-11-08T23:20:58.830Z,94.30
2017-11-08T23:23:28.713Z,94.40
2017-11-08T23:25:58.335Z,94.40
2017-11-08T23:28:27.191Z,94.40
2017-11-08T23:30:55.886Z,94.40
2017-11-08T23:33:25.504Z,94.40
2017-11-08T23:35:54.188Z,94.40
2017-11-08T23:38:23.047Z,94.50
2017-11-08T23:40:51.413Z,94.60
2017-11-08T23:43:20.278Z,94.60
2017-11-08T23:45:49.132Z,94.60
2017-11-08T23:48:18.743Z,94.50
2017-11-08T23:50:50.103Z,94.50
2017-11-08T23:53:18.959Z,94.50
2017-11-08T23:55:47.842Z,94.70
2017-11-08T23:58:16.853Z,94.80
